Time;durP1;ratioP1;P1;durP2;ratioP2;P2;SDS_P1;SDS_P2;PMS_P1;PMS_P2;Temp;Humidity;BMP_temperature;BMP_pressure;BME280_temperature;BME280_humidity;BME280_pressure;Samples;Min_cycle;Max_cycle;Signal;HPM_P1;HPM_P2
2022/09/08 00:01:47;;;;;;;8.07;1.90;;;17.20;99.90;;;;;;5113099;28;20174;-40
2022/09/08 00:04:12;;;;;;;6.83;2.23;;;17.20;99.90;;;;;;5113110;28;20183;-41
2022/09/08 00:06:38;;;;;;;5.10;2.10;;;17.20;99.90;;;;;;5113357;28;20193;-40
2022/09/08 00:09:04;;;;;;;6.10;2.53;;;17.20;99.90;;;;;;5113596;28;20183;-41
2022/09/08 00:11:32;;;;;;;7.77;2.07;;;17.20;99.90;;;;;;5113324;28;20214;-39
2022/09/08 00:14:01;;;;;;;6.37;1.87;;;17.10;99.90;;;;;;5112894;28;20184;-40
2022/09/08 00:16:27;;;;;;;8.33;2.03;;;17.20;99.90;;;;;;5112953;28;20623;-39
2022/09/08 00:18:52;;;;;;;7.57;2.30;;;17.10;99.90;;;;;;5115189;28;20175;-40
2022/09/08 00:21:20;;;;;;;9.80;2.10;;;17.10;99.90;;;;;;5117019;28;20174;-39
2022/09/08 00:23:46;;;;;;;11.03;2.43;;;17.20;99.90;;;;;;5116914;28;20206;-41
2022/09/08 00:26:12;;;;;;;4.60;1.90;;;17.20;99.90;;;;;;5116554;28;20256;-39
2022/09/08 00:28:37;;;;;;;8.40;2.47;;;17.10;99.90;;;;;;5116778;27;20190;-40
2022/09/08 00:31:04;;;;;;;11.73;2.10;;;17.10;99.90;;;;;;5116982;28;20608;-40
2022/09/08 00:33:32;;;;;;;4.33;1.73;;;17.20;99.90;;;;;;5116589;28;20647;-39
2022/09/08 00:35:58;;;;;;;5.87;2.17;;;17.10;99.90;;;;;;5116321;28;20254;-39
2022/09/08 00:38:24;;;;;;;5.73;1.90;;;17.10;99.90;;;;;;5116793;28;20210;-40
2022/09/08 00:40:52;;;;;;;7.97;2.10;;;17.20;99.90;;;;;;5116540;28;20186;-41
2022/09/08 00:43:38;;;;;;;9.83;2.10;;;17.10;99.90;;;;;;5116405;28;20182;-37
2022/09/08 00:46:09;;;;;;;3.97;1.90;;;17.20;99.90;;;;;;5116493;27;20547;-39
2022/09/08 00:48:46;;;;;;;5.37;2.07;;;17.20;99.90;;;;;;5116468;28;20680;-40
2022/09/08 00:51:14;;;;;;;4.33;2.30;;;17.20;99.90;;;;;;5116394;28;20169;-41
2022/09/08 00:53:39;;;;;;;3.83;1.60;;;17.20;99.90;;;;;;5116328;28;20174;-41
2022/09/08 00:56:06;;;;;;;10.17;2.33;;;17.20;99.90;;;;;;5115835;28;20205;-40
2022/09/08 00:58:37;;;;;;;6.77;2.13;;;17.20;99.90;;;;;;5116056;28;20174;-40
2022/09/08 01:01:04;;;;;;;8.30;2.40;;;17.20;99.90;;;;;;5116121;28;20214;-40
2022/09/08 01:03:31;;;;;;;3.77;1.70;;;17.20;99.90;;;;;;5116639;28;20178;-40
2022/09/08 01:06:15;;;;;;;4.33;2.10;;;17.20;99.90;;;;;;5115892;28;20273;-40
2022/09/08 01:14:50;;;;;;;3.77;1.80;;;17.20;99.90;;;;;;5115792;28;20258;-40
2022/09/08 01:17:18;;;;;;;6.93;2.17;;;17.10;99.90;;;;;;5115715;28;20168;-40
2022/09/08 01:19:47;;;;;;;8.97;2.33;;;17.10;99.90;;;;;;5114380;28;20200;-41
2022/09/08 01:22:31;;;;;;;2.83;1.50;;;17.10;99.90;;;;;;5116091;28;20174;-37
2022/09/08 01:25:22;;;;;;;6.80;1.80;;;17.10;99.90;;;;;;5115958;28;20256;-40
2022/09/08 01:27:51;;;;;;;7.57;2.13;;;17.20;99.90;;;;;;5116124;28;20213;-38
2022/09/08 01:30:16;;;;;;;9.60;2.30;;;17.20;99.90;;;;;;5115417;28;20174;-40
2022/09/08 01:32:43;;;;;;;7.43;2.30;;;17.10;99.90;;;;;;5114299;28;20677;-39
2022/09/08 01:35:09;;;;;;;7.77;2.23;;;17.20;99.90;;;;;;5115580;28;20263;-40
2022/09/08 01:37:35;;;;;;;5.23;2.00;;;17.10;99.90;;;;;;5115646;28;20178;-38
2022/09/08 01:40:03;;;;;;;5.87;2.40;;;17.20;99.90;;;;;;5115371;28;20590;-40
2022/09/08 01:42:29;;;;;;;9.53;2.00;;;17.20;99.90;;;;;;5115195;28;20643;-37
2022/09/08 01:44:55;;;;;;;7.07;2.30;;;17.10;99.90;;;;;;5115095;28;20206;-37
2022/09/08 01:47:21;;;;;;;6.43;1.90;;;17.10;99.90;;;;;;5115056;28;20706;-39
2022/09/08 01:49:46;;;;;;;8.70;2.17;;;17.10;99.90;;;;;;5115237;28;20320;-39
2022/09/08 01:52:12;;;;;;;7.97;2.60;;;17.10;99.90;;;;;;5115243;28;20197;-40
2022/09/08 01:54:38;;;;;;;5.83;2.23;;;17.10;99.90;;;;;;5114765;28;20205;-38
2022/09/08 01:57:04;;;;;;;8.70;2.30;;;17.10;99.90;;;;;;5114841;28;20636;-37
2022/09/08 01:59:29;;;;;;;8.60;2.30;;;17.10;99.90;;;;;;5114940;28;20177;-39
2022/09/08 02:01:55;;;;;;;5.20;2.03;;;17.10;99.90;;;;;;5115262;28;20174;-39
2022/09/08 02:04:21;;;;;;;6.77;2.40;;;17.10;99.90;;;;;;5114690;28;20213;-39
2022/09/08 02:06:47;;;;;;;4.90;2.40;;;17.10;99.90;;;;;;5114716;28;20227;-38
2022/09/08 02:09:13;;;;;;;8.77;2.30;;;17.10;99.90;;;;;;5114820;28;20273;-38
2022/09/08 02:11:38;;;;;;;6.93;2.47;;;17.10;99.90;;;;;;5115085;28;20607;-40
2022/09/08 02:14:05;;;;;;;5.70;2.50;;;17.10;99.90;;;;;;5114738;28;20171;-37
2022/09/08 02:16:30;;;;;;;5.30;2.57;;;17.10;99.90;;;;;;5113103;28;20210;-38
2022/09/08 02:18:56;;;;;;;3.73;2.17;;;17.10;99.90;;;;;;5114605;28;20243;-38
2022/09/08 02:21:27;;;;;;;6.17;2.60;;;17.10;99.90;;;;;;5114788;28;20175;-38
2022/09/08 02:23:54;;;;;;;6.47;2.63;;;17.10;99.90;;;;;;5114589;28;20182;-40
2022/09/08 02:26:22;;;;;;;5.17;2.30;;;17.10;99.90;;;;;;5114385;27;20585;-39
2022/09/08 02:28:51;;;;;;;3.23;2.20;;;17.10;99.90;;;;;;5114301;28;20206;-38
2022/09/08 02:31:17;;;;;;;5.87;2.40;;;17.10;99.90;;;;;;5114488;28;20174;-37
2022/09/08 02:33:42;;;;;;;3.93;2.20;;;17.10;99.90;;;;;;5114329;28;20182;-41
2022/09/08 02:36:08;;;;;;;7.23;2.40;;;17.10;99.90;;;;;;5114041;28;20220;-39
2022/09/08 02:38:33;;;;;;;3.90;2.00;;;17.10;99.90;;;;;;5113310;28;20182;-39
2022/09/08 02:41:00;;;;;;;4.00;2.43;;;17.10;99.90;;;;;;5113964;28;20201;-37
2022/09/08 02:43:27;;;;;;;5.33;2.27;;;17.00;99.90;;;;;;5114362;28;20666;-38
2022/09/08 02:45:53;;;;;;;4.50;2.50;;;17.00;99.90;;;;;;5114368;28;20663;-39
2022/09/08 02:48:19;;;;;;;5.43;2.50;;;17.00;99.90;;;;;;5114190;28;20182;-38
2022/09/08 02:50:44;;;;;;;6.60;2.40;;;17.00;99.90;;;;;;5113980;28;20580;-38
2022/09/08 02:53:10;;;;;;;8.00;2.50;;;17.00;99.90;;;;;;5114368;28;20244;-39
2022/09/08 02:55:38;;;;;;;5.07;2.27;;;17.00;99.90;;;;;;5113764;28;20214;-39
2022/09/08 02:58:04;;;;;;;7.67;2.50;;;17.00;99.90;;;;;;5113933;28;20199;-40
2022/09/08 03:00:32;;;;;;;8.03;2.80;;;17.00;99.90;;;;;;5114119;28;20175;-40
2022/09/08 03:02:58;;;;;;;12.70;3.20;;;17.00;99.90;;;;;;5112526;28;20178;-40
2022/09/08 03:05:24;;;;;;;6.43;2.50;;;17.00;99.90;;;;;;5113979;28;20664;-39
2022/09/08 03:07:49;;;;;;;8.77;2.67;;;17.00;99.90;;;;;;5114002;28;20189;-40
2022/09/08 03:10:16;;;;;;;6.37;2.60;;;17.00;99.90;;;;;;5114900;28;20174;-46
2022/09/08 03:12:41;;;;;;;7.80;2.97;;;17.00;99.90;;;;;;5115526;28;20181;-46
2022/09/08 03:15:08;;;;;;;7.27;2.70;;;17.00;99.90;;;;;;5114492;28;20565;-45
2022/09/08 03:17:33;;;;;;;7.63;2.90;;;16.90;99.90;;;;;;5113816;28;20178;-45
2022/09/08 03:19:59;;;;;;;7.07;3.40;;;16.90;99.90;;;;;;5112938;28;20700;-45
2022/09/08 03:22:24;;;;;;;4.60;2.80;;;16.80;99.90;;;;;;5115853;28;20178;-45
2022/09/08 03:24:50;;;;;;;7.70;4.07;;;16.80;99.90;;;;;;5116906;28;20214;-45
2022/09/08 03:27:16;;;;;;;7.03;3.20;;;16.90;99.90;;;;;;5118202;28;20178;-47
2022/09/08 03:29:41;;;;;;;6.77;2.73;;;16.80;99.90;;;;;;5117688;28;20216;-45
2022/09/08 03:32:07;;;;;;;6.10;2.93;;;16.70;99.90;;;;;;5116227;28;20620;-45
2022/09/08 03:34:32;;;;;;;6.67;3.10;;;16.70;99.90;;;;;;5116705;28;20198;-45
2022/09/08 03:36:58;;;;;;;4.40;2.63;;;16.70;99.90;;;;;;5115520;28;20695;-46
2022/09/08 03:39:23;;;;;;;9.97;3.03;;;16.60;99.90;;;;;;5117646;28;20170;-44
2022/09/08 03:41:49;;;;;;;8.20;2.67;;;16.60;99.90;;;;;;5117625;28;20644;-45
2022/09/08 03:44:15;;;;;;;6.07;2.87;;;16.60;99.90;;;;;;5117752;28;20265;-45
2022/09/08 03:46:40;;;;;;;5.27;2.57;;;16.60;99.90;;;;;;5115408;28;20713;-45
2022/09/08 03:49:06;;;;;;;6.13;2.53;;;16.60;99.90;;;;;;5114344;28;20588;-47
2022/09/08 03:51:31;;;;;;;4.50;2.53;;;16.60;99.90;;;;;;5114588;28;20255;-46
2022/09/08 03:56:44;;;;;;;5.50;2.27;;;16.50;99.90;;;;;;5120457;28;20289;-47
2022/09/08 03:59:10;;;;;;;3.43;1.90;;;16.50;99.90;;;;;;5119625;28;20186;-43
2022/09/08 04:01:36;;;;;;;3.80;1.80;;;16.50;99.90;;;;;;5119197;28;20182;-46
2022/09/08 04:04:03;;;;;;;7.77;1.90;;;16.40;99.90;;;;;;5118462;28;20253;-44
2022/09/08 04:06:29;;;;;;;5.17;2.13;;;16.40;99.90;;;;;;5118200;28;20190;-46
2022/09/08 04:08:55;;;;;;;5.03;1.90;;;16.40;99.90;;;;;;5117550;28;20235;-42
2022/09/08 04:11:20;;;;;;;3.60;1.53;;;16.30;99.90;;;;;;5117022;28;20178;-41
2022/09/08 04:13:46;;;;;;;4.70;1.73;;;16.30;99.90;;;;;;5117075;28;20636;-41
2022/09/08 04:16:12;;;;;;;7.17;2.20;;;16.30;99.90;;;;;;5115558;28;20241;-43
2022/09/08 04:18:38;;;;;;;2.63;1.40;;;16.30;99.90;;;;;;5117215;28;20184;-45
2022/09/08 04:21:04;;;;;;;4.43;1.80;;;16.30;99.90;;;;;;5116915;27;20174;-41
2022/09/08 04:23:31;;;;;;;3.80;1.77;;;16.30;99.90;;;;;;5115558;28;20239;-44
2022/09/08 04:26:02;;;;;;;4.33;2.07;;;16.20;99.90;;;;;;5116449;28;20658;-44
2022/09/08 04:28:28;;;;;;;4.90;1.50;;;16.20;99.90;;;;;;5115441;28;20185;-43
2022/09/08 04:30:54;;;;;;;2.47;1.40;;;16.30;99.90;;;;;;5117159;28;20265;-42
2022/09/08 04:33:20;;;;;;;4.27;1.80;;;16.30;99.90;;;;;;5115274;28;20205;-42
2022/09/08 04:35:46;;;;;;;5.77;1.90;;;16.30;99.90;;;;;;5116526;28;20198;-38
2022/09/08 04:38:11;;;;;;;5.17;1.40;;;16.30;99.90;;;;;;5116463;28;20174;-39
2022/09/08 04:40:37;;;;;;;7.20;1.70;;;16.30;99.90;;;;;;5116429;27;20209;-39
2022/09/08 04:43:03;;;;;;;4.57;1.83;;;16.30;99.90;;;;;;5116359;28;20170;-40
2022/09/08 04:45:28;;;;;;;3.70;2.20;;;16.30;99.90;;;;;;5116274;28;20290;-40
2022/09/08 04:47:54;;;;;;;3.93;1.60;;;16.30;99.90;;;;;;5116375;28;20614;-39
2022/09/08 04:50:19;;;;;;;3.80;1.53;;;16.20;99.90;;;;;;5116504;28;20526;-41
2022/09/08 04:52:45;;;;;;;4.83;2.00;;;16.30;99.90;;;;;;5116190;28;20277;-39
2022/09/08 04:55:11;;;;;;;2.77;1.90;;;16.30;99.90;;;;;;5116089;27;20202;-39
2022/09/08 04:57:36;;;;;;;4.43;1.87;;;16.20;99.90;;;;;;5116085;28;20709;-39
2022/09/08 05:00:04;;;;;;;10.20;2.33;;;16.20;99.90;;;;;;5116054;27;20186;-39
2022/09/08 05:02:30;;;;;;;4.77;2.30;;;16.20;99.90;;;;;;5116335;28;20197;-39
2022/09/08 05:04:56;;;;;;;6.07;2.20;;;16.20;99.90;;;;;;5115566;28;20287;-37
2022/09/08 05:07:22;;;;;;;8.13;2.30;;;16.20;99.90;;;;;;5116402;27;20657;-40
2022/09/08 05:09:47;;;;;;;4.80;2.03;;;16.30;99.90;;;;;;5116222;28;20190;-38
2022/09/08 05:12:13;;;;;;;6.17;2.10;;;16.20;99.90;;;;;;5115881;28;20214;-38
2022/09/08 05:14:38;;;;;;;6.23;2.60;;;16.20;99.90;;;;;;5114424;28;20194;-40
2022/09/08 05:17:04;;;;;;;7.73;2.33;;;16.30;99.90;;;;;;5116053;28;20661;-40
2022/09/08 05:19:31;;;;;;;7.10;2.60;;;16.20;99.90;;;;;;5116253;28;20171;-37
2022/09/08 05:21:57;;;;;;;5.77;2.50;;;16.30;99.90;;;;;;5116125;27;20231;-40
2022/09/08 05:24:22;;;;;;;6.57;2.90;;;16.20;99.90;;;;;;5115623;28;20194;-41
2022/09/08 05:26:48;;;;;;;5.30;2.53;;;16.20;99.90;;;;;;5115801;28;20166;-40
2022/09/08 05:29:14;;;;;;;5.80;2.17;;;16.20;99.90;;;;;;5115770;28;20292;-41
2022/09/08 05:31:40;;;;;;;6.67;2.63;;;16.20;99.90;;;;;;5115420;28;20174;-41
2022/09/08 05:34:05;;;;;;;5.80;2.37;;;16.20;99.90;;;;;;5115757;28;20219;-38
2022/09/08 05:36:33;;;;;;;3.77;2.47;;;16.20;99.90;;;;;;5115805;28;20239;-40
2022/09/08 05:39:01;;;;;;;4.60;2.30;;;16.10;99.90;;;;;;5114361;28;20182;-40
2022/09/08 05:41:27;;;;;;;3.97;2.20;;;16.10;99.90;;;;;;5115498;28;20581;-41
2022/09/08 05:43:54;;;;;;;5.17;2.10;;;16.10;99.90;;;;;;5116043;28;20235;-39
2022/09/08 05:46:21;;;;;;;5.50;2.17;;;16.10;99.90;;;;;;5114416;28;20198;-40
2022/09/08 05:48:47;;;;;;;4.83;2.27;;;16.10;99.90;;;;;;5116081;28;20186;-40
2022/09/08 05:51:17;;;;;;;5.13;2.60;;;16.10;99.90;;;;;;5115610;28;20210;-40
2022/09/08 05:53:43;;;;;;;5.87;2.40;;;16.10;99.90;;;;;;5115590;28;20166;-40
2022/09/08 05:56:09;;;;;;;6.13;2.87;;;16.20;99.90;;;;;;5115278;28;20198;-40
2022/09/08 05:58:36;;;;;;;4.03;2.40;;;16.20;99.90;;;;;;5115690;28;20639;-38
2022/09/08 06:01:08;;;;;;;5.90;2.10;;;16.20;99.90;;;;;;5115035;28;20162;-38
2022/09/08 06:03:34;;;;;;;5.30;2.30;;;16.20;99.90;;;;;;5115479;28;20194;-39
2022/09/08 06:06:06;;;;;;;8.07;2.50;;;16.20;99.90;;;;;;5115140;28;20213;-39
2022/09/08 06:08:32;;;;;;;5.60;2.03;;;16.20;99.90;;;;;;5114956;28;20217;-40
2022/09/08 06:10:58;;;;;;;3.47;1.80;;;16.20;99.90;;;;;;5115113;28;20183;-41
2022/09/08 06:13:24;;;;;;;3.67;1.93;;;16.20;99.90;;;;;;5114963;28;20178;-43
2022/09/08 06:15:50;;;;;;;2.53;1.90;;;16.20;99.90;;;;;;5114145;28;20209;-41
2022/09/08 06:18:17;;;;;;;5.67;2.13;;;16.20;99.90;;;;;;5113586;28;20649;-44
2022/09/08 06:20:43;;;;;;;4.50;2.17;;;16.20;99.90;;;;;;5114814;28;20185;-41
2022/09/08 06:23:10;;;;;;;2.43;1.80;;;16.20;99.90;;;;;;5114713;28;20255;-42
2022/09/08 06:25:45;;;;;;;4.53;1.57;;;16.20;99.90;;;;;;5113491;28;20214;-42
2022/09/08 06:28:14;;;;;;;1.73;1.23;;;16.10;99.90;;;;;;5114775;28;20173;-42
2022/09/08 06:30:40;;;;;;;4.33;1.50;;;16.10;99.90;;;;;;5115187;28;20254;-44
2022/09/08 06:33:13;;;;;;;2.33;1.20;;;16.10;99.90;;;;;;5114725;28;20174;-44
2022/09/08 06:35:47;;;;;;;3.40;1.47;;;16.20;99.90;;;;;;5115227;28;20220;-43
2022/09/08 06:38:21;;;;;;;3.17;1.57;;;16.10;99.90;;;;;;5114908;28;20196;-43
2022/09/08 06:40:49;;;;;;;5.33;1.50;;;16.20;99.90;;;;;;5114872;28;20158;-43
2022/09/08 06:43:20;;;;;;;3.20;1.40;;;16.20;99.90;;;;;;5114632;28;20718;-44
2022/09/08 06:45:51;;;;;;;4.03;1.50;;;16.10;99.90;;;;;;5113580;28;20537;-43
2022/09/08 06:48:37;;;;;;;3.13;1.80;;;16.10;99.90;;;;;;5114780;28;20626;-46
2022/09/08 06:51:44;;;;;;;3.70;1.33;;;16.10;99.90;;;;;;5114761;28;20588;-46
2022/09/08 06:54:09;;;;;;;2.57;1.27;;;16.10;99.90;;;;;;5115513;28;20645;-46
2022/09/08 06:57:02;;;;;;;2.87;1.50;;;16.00;99.90;;;;;;5115279;28;20232;-44
2022/09/08 07:00:02;;;;;;;2.77;1.37;;;16.00;99.90;;;;;;5115504;28;20155;-44
2022/09/08 07:02:40;;;;;;;3.20;1.30;;;15.90;99.90;;;;;;5114598;28;20637;-44
2022/09/08 07:05:31;;;;;;;1.47;1.20;;;15.90;99.90;;;;;;5114438;28;20698;-45
2022/09/08 07:08:18;;;;;;;1.97;1.20;;;15.90;99.90;;;;;;5114540;28;20245;-44
2022/09/08 07:11:05;;;;;;;1.27;1.17;;;15.90;99.90;;;;;;5114261;28;20162;-43
2022/09/08 07:13:33;;;;;;;2.23;1.30;;;15.90;99.90;;;;;;5114149;28;20154;-43
2022/09/08 07:16:05;;;;;;;3.43;1.70;;;15.90;99.90;;;;;;5114119;28;20202;-43
2022/09/08 07:19:02;;;;;;;2.90;1.70;;;16.00;99.90;;;;;;5114063;28;20174;-43
2022/09/08 07:21:28;;;;;;;2.50;1.53;;;16.00;99.90;;;;;;5113757;28;20189;-45
2022/09/08 07:23:57;;;;;;;1.73;1.47;;;16.10;99.90;;;;;;5113860;28;20170;-43
2022/09/08 07:26:47;;;;;;;4.07;1.70;;;16.10;99.90;;;;;;5114038;28;20209;-45
2022/09/08 07:29:30;;;;;;;3.27;1.67;;;16.10;99.90;;;;;;5112616;28;20566;-40
2022/09/08 07:31:58;;;;;;;3.03;1.87;;;16.20;99.90;;;;;;5114099;28;20167;-39
2022/09/08 07:34:29;;;;;;;3.30;1.50;;;16.20;99.90;;;;;;5114188;28;20189;-39
2022/09/08 07:37:24;;;;;;;4.07;2.03;;;16.30;99.90;;;;;;5113085;28;20190;-38
2022/09/08 07:40:16;;;;;;;3.73;1.70;;;16.40;99.90;;;;;;5113983;28;20161;-40
2022/09/08 07:42:43;;;;;;;6.20;1.80;;;16.50;99.90;;;;;;5113875;28;20159;-39
2022/09/08 07:45:12;;;;;;;6.13;2.50;;;16.60;99.90;;;;;;5113612;28;20212;-38
2022/09/08 07:47:41;;;;;;;4.83;1.90;;;16.80;99.90;;;;;;5113748;28;20253;-38
2022/09/08 07:50:53;;;;;;;4.93;2.10;;;17.00;99.90;;;;;;5113751;28;20545;-40
2022/09/08 07:53:40;;;;;;;3.83;2.20;;;17.20;99.90;;;;;;5119996;28;20178;-39
2022/09/08 07:56:21;;;;;;;4.10;2.10;;;17.50;99.90;;;;;;5116681;28;20265;-42
2022/09/08 07:59:25;;;;;;;4.43;2.10;;;17.60;99.90;;;;;;5114479;28;20177;-38
2022/09/08 08:02:21;;;;;;;4.57;1.87;;;17.80;99.90;;;;;;5114511;28;20158;-41
2022/09/08 08:04:55;;;;;;;2.13;1.70;;;17.90;99.90;;;;;;5113873;28;20193;-39
2022/09/08 08:07:50;;;;;;;5.50;1.93;;;18.00;99.90;;;;;;5113587;28;20225;-39
2022/09/08 08:10:27;;;;;;;5.47;1.80;;;18.00;99.90;;;;;;5110306;28;20201;-39
2022/09/08 08:13:16;;;;;;;1.77;1.30;;;18.10;99.90;;;;;;5113978;28;20155;-39
2022/09/08 08:16:12;;;;;;;3.30;1.50;;;18.20;99.90;;;;;;5113320;28;20736;-41
2022/09/08 08:18:43;;;;;;;2.40;1.27;;;18.30;99.90;;;;;;5113621;28;20261;-40
2022/09/08 08:21:22;;;;;;;5.00;1.40;;;18.30;99.90;;;;;;5113239;28;20636;-40
2022/09/08 08:24:13;;;;;;;2.90;0.90;;;18.30;99.90;;;;;;5112121;28;20182;-42
2022/09/08 08:27:02;;;;;;;2.43;1.20;;;18.30;99.90;;;;;;5113445;28;20175;-41
2022/09/08 08:29:54;;;;;;;1.80;1.20;;;18.20;99.90;;;;;;5113431;28;20304;-40
2022/09/08 08:32:30;;;;;;;4.13;1.30;;;18.20;99.90;;;;;;5101675;28;20194;-39
2022/09/08 08:34:58;;;;;;;1.90;1.00;;;18.10;99.90;;;;;;5112908;28;20343;-37
2022/09/08 08:37:28;;;;;;;3.23;1.50;;;18.10;99.90;;;;;;5113787;28;20261;-40
2022/09/08 08:39:55;;;;;;;6.37;1.60;;;18.10;99.90;;;;;;5115609;28;20173;-41
2022/09/08 08:42:51;;;;;;;4.20;1.30;;;18.10;99.90;;;;;;5116817;28;20175;-41
2022/09/08 08:45:32;;;;;;;5.27;1.10;;;18.10;99.90;;;;;;5116812;28;20194;-39
2022/09/08 08:48:28;;;;;;;2.90;1.00;;;18.20;99.90;;;;;;5116475;28;20162;-39
2022/09/08 08:51:21;;;;;;;3.53;1.20;;;18.20;99.90;;;;;;5116777;28;20246;-40
2022/09/08 08:54:20;;;;;;;4.00;1.63;;;18.20;99.90;;;;;;5116629;28;20166;-39
2022/09/08 08:56:58;;;;;;;2.80;1.03;;;18.20;99.90;;;;;;5116606;28;20243;-39
2022/09/08 08:59:32;;;;;;;4.27;1.30;;;18.20;99.90;;;;;;5116389;28;20158;-39
2022/09/08 09:02:23;;;;;;;1.93;1.13;;;18.20;99.90;;;;;;5116588;28;20166;-38
2022/09/08 09:05:19;;;;;;;4.70;1.33;;;18.20;99.90;;;;;;5116428;27;20194;-40
2022/09/08 09:07:48;;;;;;;2.97;1.30;;;18.30;99.90;;;;;;5116552;28;20521;-41
2022/09/08 09:10:38;;;;;;;3.17;1.27;;;18.40;99.90;;;;;;5116121;28;20166;-39
2022/09/08 09:13:15;;;;;;;3.63;1.40;;;18.40;99.90;;;;;;5116295;28;20162;-39
2022/09/08 09:16:10;;;;;;;4.10;1.30;;;18.50;99.90;;;;;;5116111;28;20206;-41
2022/09/08 09:19:09;;;;;;;2.80;1.07;;;18.50;99.90;;;;;;5115032;28;20165;-39
2022/09/08 09:21:50;;;;;;;2.93;1.10;;;18.50;99.90;;;;;;5116356;28;20155;-39
2022/09/08 09:24:57;;;;;;;4.90;1.47;;;18.60;99.90;;;;;;5114547;28;20190;-40
2022/09/08 09:27:43;;;;;;;2.20;0.70;;;18.70;99.90;;;;;;5114808;28;20190;-41
2022/09/08 09:30:12;;;;;;;3.40;1.13;;;18.80;99.90;;;;;;5115140;28;20162;-40
2022/09/08 09:32:58;;;;;;;3.90;1.13;;;18.90;99.90;;;;;;5116392;28;20562;-42
2022/09/08 09:36:03;;;;;;;2.40;1.00;;;19.00;99.90;;;;;;5116186;28;20202;-44
2022/09/08 09:38:53;;;;;;;2.70;0.90;;;19.10;99.90;;;;;;5116084;27;20567;-43
2022/09/08 09:41:39;;;;;;;3.10;1.23;;;19.10;99.90;;;;;;5115651;28;20158;-43
2022/09/08 09:44:20;;;;;;;2.73;0.90;;;19.00;99.90;;;;;;5115961;28;20201;-43
2022/09/08 09:46:57;;;;;;;1.77;0.90;;;18.90;99.90;;;;;;5115545;28;20193;-43
2022/09/08 09:49:53;;;;;;;3.37;1.27;;;18.80;99.90;;;;;;5115782;28;20178;-44
2022/09/08 09:52:37;;;;;;;4.10;1.10;;;18.80;99.90;;;;;;5115237;28;20181;-43
2022/09/08 09:55:13;;;;;;;2.73;1.17;;;18.90;99.90;;;;;;5115084;27;20206;-44
2022/09/08 09:58:11;;;;;;;3.07;1.10;;;19.10;99.90;;;;;;5115737;28;20155;-45
2022/09/08 10:00:42;;;;;;;2.83;0.80;;;19.30;99.90;;;;;;5115216;28;20173;-43
2022/09/08 10:03:25;;;;;;;4.93;0.90;;;19.50;99.90;;;;;;5115190;28;20520;-45
2022/09/08 10:06:03;;;;;;;1.73;0.80;;;19.70;99.90;;;;;;5115024;27;20678;-46
2022/09/08 10:09:09;;;;;;;1.80;0.80;;;19.70;99.90;;;;;;5115342;28;20596;-46
2022/09/08 10:11:44;;;;;;;1.80;0.90;;;19.70;99.90;;;;;;5115308;28;20223;-45
2022/09/08 10:14:31;;;;;;;3.70;1.00;;;19.80;99.90;;;;;;5115032;28;20219;-45
2022/09/08 10:17:24;;;;;;;3.50;0.90;;;19.80;99.90;;;;;;5115316;28;20198;-45
2022/09/08 10:20:31;;;;;;;3.23;0.90;;;19.80;99.90;;;;;;5114923;28;20174;-45
2022/09/08 10:23:25;;;;;;;3.53;0.97;;;19.90;99.90;;;;;;5115106;28;20178;-43
2022/09/08 10:26:28;;;;;;;2.77;1.10;;;20.10;99.90;;;;;;5114874;28;20327;-45
2022/09/08 10:29:05;;;;;;;3.13;1.20;;;20.10;99.90;;;;;;5114968;28;20162;-44
2022/09/08 10:31:57;;;;;;;2.40;0.90;;;20.20;99.90;;;;;;5115264;28;20158;-45
2022/09/08 10:34:48;;;;;;;2.00;1.00;;;20.20;99.90;;;;;;5114969;28;20173;-44
2022/09/08 10:37:16;;;;;;;2.00;1.13;;;20.30;99.90;;;;;;5115188;28;20179;-44
2022/09/08 10:40:19;;;;;;;4.50;0.87;;;20.20;99.90;;;;;;5115054;28;20248;-43
2022/09/08 10:43:14;;;;;;;1.83;1.00;;;20.30;99.90;;;;;;5115116;28;20657;-44
2022/09/08 10:46:17;;;;;;;6.83;1.03;;;20.30;99.90;;;;;;5095090;28;20202;-45
2022/09/08 10:48:45;;;;;;;4.17;1.10;;;20.40;99.90;;;;;;5115350;28;20170;-45
2022/09/08 10:51:20;;;;;;;2.00;1.00;;;20.50;99.90;;;;;;5114910;28;20170;-43
2022/09/08 10:54:14;;;;;;;3.43;1.00;;;20.60;99.90;;;;;;5114786;28;20182;-44
2022/09/08 10:56:42;;;;;;;2.70;1.10;;;20.50;99.90;;;;;;5115404;28;20190;-44
2022/09/08 10:59:32;;;;;;;3.30;0.90;;;20.50;99.90;;;;;;5115002;28;20643;-46
2022/09/08 11:02:17;;;;;;;3.53;1.20;;;20.50;99.90;;;;;;5114458;28;20612;-44
2022/09/08 11:05:10;;;;;;;2.50;1.10;;;20.50;99.90;;;;;;5115451;28;20610;-44
2022/09/08 11:07:56;;;;;;;3.20;1.20;;;20.50;99.90;;;;;;5115075;28;20178;-44
2022/09/08 11:10:44;;;;;;;3.10;1.00;;;20.60;99.90;;;;;;5115432;28;20163;-45
2022/09/08 11:13:35;;;;;;;2.43;0.93;;;20.90;99.90;;;;;;5115546;28;20592;-44
2022/09/08 11:16:27;;;;;;;2.40;0.80;;;21.10;99.90;;;;;;5114937;28;20206;-44
2022/09/08 11:19:39;;;;;;;3.03;0.80;;;21.40;99.90;;;;;;5115354;28;20616;-46
2022/09/08 11:22:29;;;;;;;0.97;0.60;;;21.50;99.90;;;;;;5113901;28;20250;-45
2022/09/08 11:25:15;;;;;;;0.97;0.40;;;21.70;99.90;;;;;;5115427;28;20755;-46
2022/09/08 11:28:14;;;;;;;0.80;0.50;;;21.60;99.90;;;;;;5114513;28;20252;-44
2022/09/08 11:31:00;;;;;;;1.23;0.60;;;21.60;99.90;;;;;;5114313;28;20165;-44
2022/09/08 11:33:46;;;;;;;3.23;0.60;;;21.50;99.90;;;;;;5114084;28;20578;-45
2022/09/08 11:36:20;;;;;;;2.20;0.60;;;21.50;99.90;;;;;;5113589;28;20209;-44
2022/09/08 11:38:55;;;;;;;1.77;0.50;;;21.50;99.90;;;;;;5114321;28;20166;-44
2022/09/08 11:41:50;;;;;;;1.47;0.50;;;21.50;99.90;;;;;;5114089;28;20207;-45
2022/09/08 11:44:34;;;;;;;1.77;0.60;;;21.60;99.90;;;;;;5113769;28;20158;-46
2022/09/08 11:47:20;;;;;;;1.30;0.50;;;21.80;99.90;;;;;;5113990;28;20163;-45
2022/09/08 11:50:12;;;;;;;2.87;0.63;;;22.00;99.90;;;;;;5114340;28;20162;-45
2022/09/08 11:53:15;;;;;;;2.00;0.50;;;22.10;99.90;;;;;;5113876;28;20629;-44
2022/09/08 11:56:02;;;;;;;2.87;0.50;;;22.00;99.90;;;;;;5112526;28;20626;-46
2022/09/08 11:58:51;;;;;;;2.33;0.83;;;22.10;99.90;;;;;;5114515;28;20159;-45
2022/09/08 12:01:38;;;;;;;0.97;0.40;;;22.10;99.90;;;;;;5114474;28;20159;-45
2022/09/08 12:04:27;;;;;;;1.73;0.70;;;22.20;99.90;;;;;;5114108;28;20166;-44
2022/09/08 12:07:30;;;;;;;2.47;0.50;;;22.40;99.90;;;;;;5114414;28;20158;-46
2022/09/08 12:10:30;;;;;;;1.80;0.60;;;22.40;99.90;;;;;;5114107;28;20170;-45
2022/09/08 12:13:27;;;;;;;1.87;0.50;;;22.50;99.90;;;;;;5113895;28;20167;-46
2022/09/08 12:16:18;;;;;;;0.80;0.50;;;22.70;99.90;;;;;;5117893;28;20208;-45
2022/09/08 12:19:19;;;;;;;0.37;0.37;;;22.80;99.90;;;;;;5118084;28;20175;-46
2022/09/08 12:22:07;;;;;;;2.40;0.60;;;22.90;99.90;;;;;;5117728;28;20166;-44
2022/09/08 12:24:58;;;;;;;3.47;0.60;;;23.00;99.90;;;;;;5117621;28;20214;-44
2022/09/08 12:27:40;;;;;;;4.17;0.87;;;23.10;99.90;;;;;;5118113;28;20567;-46
2022/09/08 12:30:27;;;;;;;1.73;0.50;;;23.20;99.90;;;;;;5118132;28;20158;-47
2022/09/08 12:33:17;;;;;;;1.53;0.50;;;23.30;99.90;;;;;;5118009;28;20170;-45
2022/09/08 12:35:53;;;;;;;0.67;0.40;;;23.40;99.90;;;;;;5117618;28;20698;-45
2022/09/08 12:38:49;;;;;;;2.57;0.70;;;23.50;99.90;;;;;;5117542;27;20257;-44
2022/09/08 12:41:39;;;;;;;1.50;0.60;;;23.50;99.90;;;;;;5117608;28;20245;-45
2022/09/08 12:44:19;;;;;;;2.00;0.80;;;23.40;99.90;;;;;;5117269;28;20603;-44
2022/09/08 12:47:02;;;;;;;2.17;0.63;;;23.40;99.90;;;;;;5116812;28;20158;-44
2022/09/08 12:49:57;;;;;;;2.00;0.50;;;23.40;99.90;;;;;;5117034;28;20627;-45
2022/09/08 12:52:38;;;;;;;2.57;0.90;;;23.40;99.90;;;;;;5117132;28;20647;-43
2022/09/08 12:55:41;;;;;;;2.33;0.70;;;23.30;99.90;;;;;;5117075;28;20671;-40
2022/09/08 12:58:10;;;;;;;1.77;0.60;;;23.20;99.90;;;;;;5116410;27;20162;-40
2022/09/08 13:00:41;;;;;;;2.40;0.90;;;23.20;99.90;;;;;;5116109;28;20257;-39
2022/09/08 13:03:32;;;;;;;6.37;1.00;;;23.20;99.90;;;;;;5116833;28;20551;-39
2022/09/08 13:06:23;;;;;;;2.70;0.80;;;23.40;99.90;;;;;;5116012;28;20195;-39
2022/09/08 13:09:09;;;;;;;2.20;0.67;;;23.60;99.90;;;;;;5116231;28;20208;-42
2022/09/08 13:11:55;;;;;;;2.73;0.80;;;23.60;99.90;;;;;;5115657;28;20736;-38
2022/09/08 13:14:37;;;;;;;1.03;0.87;;;23.60;99.90;;;;;;5114484;28;20584;-39
2022/09/08 13:17:17;;;;;;;1.00;0.57;;;23.60;99.90;;;;;;5115686;28;20198;-41
2022/09/08 13:20:18;;;;;;;1.80;0.60;;;23.60;99.90;;;;;;5115911;28;20154;-39
2022/09/08 13:23:19;;;;;;;1.50;0.80;;;23.50;99.90;;;;;;5115745;28;20153;-39
2022/09/08 13:26:05;;;;;;;1.23;0.63;;;23.40;99.90;;;;;;5109878;28;20251;-39
2022/09/08 13:29:12;;;;;;;2.03;0.77;;;23.40;99.90;;;;;;5115949;28;20662;-41
2022/09/08 13:31:46;;;;;;;3.90;0.93;;;23.40;99.90;;;;;;5120606;28;20159;-42
2022/09/08 13:34:37;;;;;;;2.00;0.80;;;23.50;99.90;;;;;;5120517;28;20166;-40
2022/09/08 13:37:37;;;;;;;1.57;0.60;;;23.70;99.90;;;;;;5119059;28;20194;-41
2022/09/08 13:40:27;;;;;;;2.10;0.70;;;23.70;99.90;;;;;;5115434;28;20163;-41
2022/09/08 13:43:18;;;;;;;5.87;1.20;;;23.80;99.90;;;;;;5115367;28;20205;-41